createdAt,value
2023-05-05T00:01:52.659Z,41.64
2023-05-05T00:04:24.002Z,41.87
2023-05-05T00:06:53.170Z,42.06
2023-05-05T00:09:24.697Z,42.13
2023-05-05T00:11:53.650Z,42.15
2023-05-05T00:14:22.702Z,42.20
2023-05-05T00:16:58.071Z,42.24
2023-05-05T00:19:27.191Z,42.40
2023-05-05T00:21:59.992Z,42.38
2023-05-05T00:24:29.176Z,42.58
2023-05-05T00:27:01.872Z,42.81
2023-05-05T00:29:31.049Z,42.74
2023-05-05T00:31:59.919Z,42.82
2023-05-05T00:34:28.705Z,42.96
2023-05-05T00:36:57.533Z,42.99
2023-05-05T00:39:26.424Z,42.94
2023-05-05T00:41:56.103Z,42.86
2023-05-05T00:44:41.486Z,42.79
2023-05-05T00:47:11.672Z,42.88
2023-05-05T00:49:40.807Z,43.22
2023-05-05T00:52:11.185Z,43.26
2023-05-05T00:54:45.144Z,43.27
2023-05-05T00:57:14.133Z,43.38
2023-05-05T00:59:44.707Z,43.73
2023-05-05T01:02:13.827Z,43.78
2023-05-05T01:04:47.575Z,44.05
2023-05-05T01:07:43.230Z,44.29
2023-05-05T01:10:35.650Z,44.40
2023-05-05T01:13:36.673Z,44.83
2023-05-05T01:16:21.151Z,45.04
2023-05-05T01:19:23.221Z,45.15
2023-05-05T01:22:00.649Z,45.09
2023-05-05T01:24:57.608Z,45.22
2023-05-05T01:28:14.995Z,45.40
2023-05-05T01:31:11.242Z,45.48
2023-05-05T01:33:51.655Z,45.81
2023-05-05T01:36:35.292Z,45.81
2023-05-05T01:39:06.261Z,45.84
2023-05-05T01:41:44.157Z,45.96
2023-05-05T01:44:16.372Z,46.02
2023-05-05T01:46:44.844Z,46.12
2023-05-05T01:49:15.294Z,46.26
2023-05-05T01:51:46.883Z,46.38
2023-05-05T01:54:18.571Z,46.45
2023-05-05T01:56:52.944Z,46.54
2023-05-05T01:59:23.451Z,46.45
2023-05-05T02:01:52.435Z,46.62
2023-05-05T02:04:26.346Z,46.64
2023-05-05T02:07:02.969Z,46.82
2023-05-05T02:09:39.526Z,46.75
2023-05-05T02:12:12.809Z,46.72
2023-05-05T02:14:47.031Z,46.90
2023-05-05T02:17:17.331Z,46.93
2023-05-05T02:19:52.417Z,46.93
2023-05-05T02:22:22.208Z,46.84
2023-05-05T02:24:59.742Z,46.80
2023-05-05T02:27:36.647Z,46.95
2023-05-05T02:30:20.561Z,47.14
2023-05-05T02:33:07.009Z,47.21
2023-05-05T02:35:46.829Z,47.30
2023-05-05T02:38:31.038Z,47.64
2023-05-05T02:41:05.423Z,47.54
2023-05-05T02:43:50.413Z,47.47
2023-05-05T02:46:23.245Z,47.43
2023-05-05T02:48:59.369Z,47.43
2023-05-05T02:51:32.409Z,47.38
2023-05-05T02:54:14.141Z,47.53
2023-05-05T02:56:57.138Z,47.59
2023-05-05T02:59:25.966Z,47.72
2023-05-05T03:02:47.024Z,48.00
2023-05-05T03:05:31.264Z,48.36
2023-05-05T03:08:19.685Z,48.70
2023-05-05T03:11:18.050Z,48.92
2023-05-05T03:14:21.998Z,49.12
2023-05-05T03:17:09.932Z,49.23
2023-05-05T03:19:50.632Z,49.21
2023-05-05T03:22:37.610Z,49.21
2023-05-05T03:25:07.373Z,49.29
2023-05-05T03:27:38.912Z,49.14
2023-05-05T03:30:10.194Z,48.92
2023-05-05T03:32:47.364Z,48.81
2023-05-05T03:35:25.906Z,48.62
2023-05-05T03:37:58.419Z,48.70
2023-05-05T03:40:44.249Z,48.60
2023-05-05T03:43:19.558Z,48.73
2023-05-05T03:45:53.889Z,48.69
2023-05-05T03:48:27.971Z,48.68
2023-05-05T03:51:06.924Z,48.76
2023-05-05T03:53:42.932Z,48.74
2023-05-05T03:56:22.388Z,48.62
2023-05-05T03:58:54.091Z,48.50
2023-05-05T04:01:23.090Z,48.65
2023-05-05T04:03:52.913Z,48.69
2023-05-05T04:06:28.359Z,48.52
2023-05-05T04:09:06.770Z,48.47
2023-05-05T04:11:42.260Z,48.41
2023-05-05T04:14:14.086Z,48.01
2023-05-05T04:16:45.889Z,47.78
2023-05-05T04:19:16.077Z,47.60
2023-05-05T04:21:51.633Z,47.65
2023-05-05T04:24:24.942Z,47.53
2023-05-05T04:27:06.344Z,47.36
2023-05-05T04:29:48.856Z,47.29
2023-05-05T04:32:28.469Z,47.13
2023-05-05T04:35:04.295Z,47.09
2023-05-05T04:37:37.154Z,47.16
2023-05-05T04:40:09.726Z,47.08
2023-05-05T04:42:45.618Z,47.24
2023-05-05T04:45:22.425Z,47.18
2023-05-05T04:47:58.209Z,47.18
2023-05-05T04:50:38.147Z,47.03
2023-05-05T04:53:42.178Z,47.10
2023-05-05T04:56:15.624Z,47.10
2023-05-05T04:59:06.852Z,46.64
2023-05-05T05:01:57.752Z,46.82
2023-05-05T05:04:43.336Z,46.97
2023-05-05T05:07:17.801Z,46.94
2023-05-05T05:12:42.702Z,46.72
2023-05-05T05:15:21.432Z,46.57
2023-05-05T05:17:56.211Z,46.89
2023-05-05T05:20:40.522Z,46.97
2023-05-05T05:23:27.712Z,47.09
2023-05-05T05:26:12.631Z,47.25
2023-05-05T05:28:51.712Z,47.33
2023-05-05T05:31:23.121Z,47.45
2023-05-05T05:33:56.396Z,47.64
2023-05-05T05:36:41.830Z,47.71
2023-05-05T05:39:17.034Z,47.44
2023-05-05T05:41:51.022Z,46.75
2023-05-05T05:44:22.080Z,46.10
2023-05-05T05:46:50.886Z,45.84
2023-05-05T05:49:21.861Z,45.83
2023-05-05T05:51:53.255Z,46.11
2023-05-05T05:54:23.744Z,45.79
2023-05-05T05:56:58.086Z,45.66
2023-05-05T05:59:39.544Z,45.48
2023-05-05T06:02:14.899Z,45.65
2023-05-05T06:04:56.469Z,45.67
2023-05-05T06:07:26.071Z,45.27
2023-05-05T06:09:57.386Z,44.78
2023-05-05T06:12:29.057Z,44.14
2023-05-05T06:15:03.486Z,43.83
2023-05-05T06:17:40.219Z,43.48
2023-05-05T06:20:19.979Z,43.19
2023-05-05T06:22:57.356Z,42.92
2023-05-05T06:25:27.292Z,42.67
2023-05-05T06:28:01.551Z,42.66
2023-05-05T06:30:42.780Z,41.93
2023-05-05T06:33:15.841Z,41.33
2023-05-05T06:36:00.401Z,40.67
2023-05-05T06:38:29.215Z,40.74
2023-05-05T06:41:02.091Z,41.05
2023-05-05T06:43:36.845Z,41.29
2023-05-05T06:46:22.716Z,41.07
2023-05-05T06:49:09.864Z,40.76
2023-05-05T06:51:42.199Z,40.42
2023-05-05T06:54:14.872Z,40.68
2023-05-05T06:57:07.665Z,41.01
2023-05-05T06:59:40.190Z,40.81
2023-05-05T07:02:20.090Z,40.36
2023-05-05T07:05:00.305Z,39.90
2023-05-05T07:07:34.279Z,39.33
2023-05-05T07:10:09.949Z,38.70
2023-05-05T07:12:42.554Z,37.94
2023-05-05T07:15:29.364Z,38.04
2023-05-05T07:18:16.983Z,38.00
2023-05-05T07:20:51.722Z,38.65
2023-05-05T07:23:24.301Z,38.80
2023-05-05T07:26:01.401Z,38.53
2023-05-05T07:28:35.483Z,38.36
2023-05-05T07:31:06.780Z,38.46
2023-05-05T07:33:41.228Z,38.31
2023-05-05T07:36:13.413Z,38.27
2023-05-05T07:38:47.465Z,37.98
2023-05-05T07:41:20.003Z,36.68
2023-05-05T07:43:51.623Z,36.40
2023-05-05T07:46:20.610Z,35.83
2023-05-05T07:48:52.887Z,35.16
2023-05-05T07:51:29.216Z,35.27
2023-05-05T07:54:15.879Z,35.30
2023-05-05T07:56:44.551Z,35.12
2023-05-05T07:59:18.965Z,35.73
2023-05-05T08:01:56.252Z,35.61
2023-05-05T08:04:28.162Z,35.94
2023-05-05T08:07:15.308Z,36.01
2023-05-05T08:09:48.191Z,36.11
2023-05-05T08:12:23.622Z,35.96
2023-05-05T08:14:52.769Z,35.94
2023-05-05T08:17:25.860Z,35.70
2023-05-05T08:19:54.697Z,35.35
2023-05-05T08:22:29.359Z,35.20
2023-05-05T08:25:01.081Z,35.68
2023-05-05T08:27:31.318Z,35.33
2023-05-05T08:30:00.149Z,35.00
2023-05-05T08:32:43.688Z,34.21
2023-05-05T08:35:18.499Z,33.37
2023-05-05T08:37:58.904Z,32.77
2023-05-05T08:40:38.729Z,31.79
2023-05-05T08:43:16.762Z,30.29
2023-05-05T08:45:58.534Z,29.87
2023-05-05T08:48:30.304Z,29.35
2023-05-05T08:51:09.444Z,28.81
2023-05-05T08:54:13.894Z,28.68
2023-05-05T08:56:48.877Z,26.55
2023-05-05T08:59:37.393Z,26.39
2023-05-05T09:02:11.533Z,26.29
2023-05-05T09:04:40.940Z,26.57
2023-05-05T09:07:18.628Z,26.97
2023-05-05T09:09:55.664Z,26.94
2023-05-05T09:12:40.276Z,26.99
2023-05-05T09:15:18.323Z,26.91
2023-05-05T09:18:17.812Z,27.07
2023-05-05T09:21:02.576Z,27.13
2023-05-05T09:24:07.820Z,27.41
2023-05-05T09:27:00.568Z,27.29
2023-05-05T09:29:39.610Z,27.34
2023-05-05T09:32:13.082Z,27.47
2023-05-05T09:34:57.480Z,27.73
2023-05-05T09:37:33.962Z,27.74
2023-05-05T09:40:08.735Z,27.48
2023-05-05T09:42:38.852Z,27.01
2023-05-05T09:45:19.650Z,26.68
2023-05-05T09:48:00.537Z,26.02
2023-05-05T09:50:30.918Z,26.00
2023-05-05T09:53:06.748Z,25.72
2023-05-05T09:55:36.383Z,25.38
2023-05-05T09:58:27.614Z,25.78
2023-05-05T10:00:58.786Z,26.41
2023-05-05T10:03:36.418Z,26.91
2023-05-05T10:06:08.246Z,26.58
2023-05-05T10:08:39.449Z,26.38
2023-05-05T10:11:08.297Z,26.52
2023-05-05T10:13:41.569Z,26.49
2023-05-05T10:16:14.810Z,26.62
2023-05-05T10:18:51.845Z,26.42
2023-05-05T10:21:24.199Z,26.11
2023-05-05T10:24:28.309Z,26.48
2023-05-05T10:27:03.173Z,26.33
2023-05-05T10:29:44.745Z,26.25
2023-05-05T10:32:54.381Z,26.61
2023-05-05T10:35:31.441Z,26.59
2023-05-05T10:38:01.158Z,26.94
2023-05-05T10:40:33.705Z,26.78
2023-05-05T10:43:16.855Z,26.79
2023-05-05T10:46:00.486Z,26.99
2023-05-05T10:48:46.816Z,26.84
2023-05-05T10:51:57.945Z,27.04
2023-05-05T10:55:00.935Z,27.22
2023-05-05T10:57:32.830Z,27.41
2023-05-05T11:00:04.653Z,27.62
2023-05-05T11:02:33.617Z,27.79
2023-05-05T11:05:26.399Z,28.01
2023-05-05T11:08:27.277Z,28.06
2023-05-05T11:11:00.335Z,28.37
2023-05-05T11:13:30.066Z,28.44
2023-05-05T11:16:03.176Z,28.51
2023-05-05T11:18:50.441Z,28.67
2023-05-05T11:21:30.238Z,28.85
2023-05-05T11:24:35.930Z,28.97
2023-05-05T11:27:06.924Z,29.34
2023-05-05T11:30:08.793Z,29.31
2023-05-05T11:33:57.917Z,29.33
2023-05-05T11:36:49.572Z,29.67
2023-05-05T11:39:33.152Z,29.84
2023-05-05T11:42:26.172Z,29.79
2023-05-05T11:44:58.585Z,29.83
2023-05-05T11:47:32.962Z,30.14
2023-05-05T11:50:21.822Z,30.23
2023-05-05T11:53:13.728Z,30.27
2023-05-05T11:56:09.643Z,30.35
2023-05-05T11:59:16.796Z,30.19
2023-05-05T12:01:47.918Z,29.97
2023-05-05T12:04:18.167Z,30.00
2023-05-05T12:06:52.546Z,29.81
2023-05-05T12:09:23.715Z,30.11
2023-05-05T12:12:01.944Z,30.39
2023-05-05T12:14:44.738Z,30.41
2023-05-05T12:17:16.073Z,30.62
2023-05-05T12:19:53.351Z,30.62
2023-05-05T12:22:27.542Z,30.95
2023-05-05T12:25:08.080Z,30.79
2023-05-05T12:27:40.409Z,31.04
2023-05-05T12:30:18.727Z,30.82
2023-05-05T12:33:08.377Z,30.60
2023-05-05T12:35:43.847Z,30.73
2023-05-05T12:38:23.315Z,30.62
2023-05-05T12:40:55.776Z,29.98
2023-05-05T12:43:33.548Z,29.56
2023-05-05T12:46:17.356Z,29.33
2023-05-05T12:49:05.122Z,29.08
2023-05-05T12:51:36.354Z,29.26
2023-05-05T12:54:09.298Z,29.23
2023-05-05T12:56:45.344Z,29.06
2023-05-05T12:59:29.348Z,29.10
2023-05-05T13:02:12.437Z,28.99
2023-05-05T13:04:52.716Z,28.92
2023-05-05T13:07:22.513Z,29.05
2023-05-05T13:09:52.300Z,29.57
2023-05-05T13:12:23.159Z,29.30
2023-05-05T13:14:53.395Z,29.25
2023-05-05T13:17:22.189Z,29.09
2023-05-05T13:19:51.859Z,29.10
2023-05-05T13:22:23.694Z,29.22
2023-05-05T13:24:54.830Z,29.26
2023-05-05T13:27:24.229Z,29.33
2023-05-05T13:29:53.708Z,29.34
2023-05-05T13:32:22.847Z,29.19
2023-05-05T13:34:51.707Z,29.14
2023-05-05T13:37:23.623Z,29.15
2023-05-05T13:39:59.511Z,29.11
2023-05-05T13:42:28.600Z,28.88
2023-05-05T13:45:00.190Z,28.69
2023-05-05T13:47:29.207Z,28.86
2023-05-05T13:49:58.131Z,28.75
2023-05-05T13:52:27.147Z,28.75
2023-05-05T13:54:56.008Z,28.85
2023-05-05T13:57:24.561Z,28.97
2023-05-05T13:59:54.354Z,29.18
2023-05-05T14:02:25.359Z,29.31
2023-05-05T14:04:54.596Z,29.15
2023-05-05T14:07:22.896Z,29.27
2023-05-05T14:09:51.645Z,29.09
2023-05-05T14:12:23.791Z,28.86
2023-05-05T14:14:53.258Z,28.59
2023-05-05T14:17:22.967Z,28.57
2023-05-05T14:19:55.462Z,28.76
2023-05-05T14:22:33.482Z,28.67
2023-05-05T14:25:10.949Z,28.56
2023-05-05T14:27:43.374Z,28.51
2023-05-05T14:30:21.860Z,28.90
2023-05-05T14:32:53.016Z,29.11
2023-05-05T14:35:21.991Z,29.37
2023-05-05T14:37:58.292Z,29.56
2023-05-05T14:40:31.039Z,29.88
2023-05-05T14:43:00.058Z,30.12
2023-05-05T14:45:29.167Z,30.04
2023-05-05T14:48:00.296Z,29.99
2023-05-05T14:50:28.971Z,30.31
2023-05-05T14:53:10.067Z,30.38
2023-05-05T14:55:40.663Z,30.22
2023-05-05T14:58:29.306Z,30.34
2023-05-05T15:01:27.121Z,30.77
2023-05-05T15:04:06.137Z,30.99
2023-05-05T15:06:39.698Z,31.46
2023-05-05T15:09:17.796Z,31.97
2023-05-05T15:11:46.846Z,32.40
2023-05-05T15:14:27.155Z,32.64
2023-05-05T15:16:57.061Z,33.07
2023-05-05T15:19:33.635Z,33.22
2023-05-05T15:22:05.374Z,33.71
2023-05-05T15:24:42.344Z,34.10
2023-05-05T15:27:20.904Z,34.40
2023-05-05T15:29:51.537Z,34.53
2023-05-05T15:32:20.698Z,34.47
2023-05-05T15:34:50.521Z,34.65
2023-05-05T15:37:19.399Z,35.20
2023-05-05T15:39:54.898Z,35.34
2023-05-05T15:42:27.578Z,35.54
2023-05-05T15:45:10.270Z,35.76
2023-05-05T15:47:53.165Z,35.79
2023-05-05T15:50:34.046Z,35.94
2023-05-05T15:53:15.166Z,36.09
2023-05-05T15:55:43.442Z,36.19
2023-05-05T15:58:12.536Z,36.32
2023-05-05T16:00:41.540Z,36.44
2023-05-05T16:03:18.899Z,36.68
2023-05-05T16:06:03.976Z,36.94
2023-05-05T16:08:49.217Z,37.05
2023-05-05T16:11:33.489Z,37.28
2023-05-05T16:14:25.423Z,37.25
2023-05-05T16:17:16.539Z,37.63
2023-05-05T16:19:56.804Z,37.77
2023-05-05T16:22:43.313Z,37.92
2023-05-05T16:25:36.315Z,38.13
2023-05-05T16:28:08.016Z,38.20
2023-05-05T16:30:51.240Z,38.33
2023-05-05T16:33:20.589Z,38.64
2023-05-05T16:35:54.410Z,38.95
2023-05-05T16:38:23.515Z,39.05
2023-05-05T16:41:05.358Z,39.24
2023-05-05T16:43:40.451Z,39.40
2023-05-05T16:46:09.874Z,39.64
2023-05-05T16:48:56.278Z,39.81
2023-05-05T16:51:31.106Z,39.79
2023-05-05T16:54:09.632Z,39.97
2023-05-05T16:56:41.826Z,40.02
2023-05-05T16:59:13.199Z,40.23
2023-05-05T17:01:45.057Z,40.43
2023-05-05T17:04:22.638Z,40.53
2023-05-05T17:06:57.777Z,40.73
2023-05-05T17:09:40.758Z,40.73
2023-05-05T17:12:10.672Z,41.04
2023-05-05T17:14:42.565Z,41.27
2023-05-05T17:17:11.727Z,41.34
2023-05-05T17:19:50.602Z,41.46
2023-05-05T17:22:33.151Z,41.68
2023-05-05T17:25:09.277Z,41.99
2023-05-05T17:27:45.705Z,42.19
2023-05-05T17:30:22.137Z,42.43
2023-05-05T17:32:53.645Z,42.62
2023-05-05T17:35:30.404Z,42.92
2023-05-05T17:38:04.572Z,42.77
2023-05-05T17:40:36.923Z,42.94
2023-05-05T17:43:11.064Z,42.94
2023-05-05T17:45:47.169Z,43.18
2023-05-05T17:48:19.201Z,43.33
2023-05-05T17:50:50.500Z,43.52
2023-05-05T17:53:23.179Z,43.52
2023-05-05T17:55:56.101Z,43.55
2023-05-05T17:58:28.807Z,43.65
2023-05-05T18:01:01.079Z,43.70
2023-05-05T18:04:13.715Z,43.77
2023-05-05T18:07:08.457Z,43.87
2023-05-05T18:10:07.290Z,44.15
2023-05-05T18:12:40.358Z,44.19
2023-05-05T18:15:32.460Z,44.22
2023-05-05T18:18:30.132Z,44.46
2023-05-05T18:21:02.307Z,44.40
2023-05-05T18:23:37.820Z,44.48
2023-05-05T18:26:08.956Z,44.64
2023-05-05T18:28:50.200Z,44.77
2023-05-05T18:31:31.073Z,44.85
2023-05-05T18:34:16.752Z,45.09
2023-05-05T18:36:54.457Z,45.19
2023-05-05T18:39:25.201Z,45.17
2023-05-05T18:41:59.408Z,45.22
2023-05-05T18:44:33.620Z,45.63
2023-05-05T18:47:04.526Z,45.65
2023-05-05T18:49:39.085Z,45.59
2023-05-05T18:52:08.749Z,45.63
2023-05-05T18:54:45.264Z,45.90
2023-05-05T18:57:16.715Z,45.87
2023-05-05T18:59:47.503Z,45.93
2023-05-05T19:02:23.305Z,45.97
2023-05-05T19:04:57.520Z,46.10
2023-05-05T19:07:49.676Z,46.24
2023-05-05T19:10:50.791Z,46.26
2023-05-05T19:13:46.384Z,46.16
2023-05-05T19:16:16.378Z,46.17
2023-05-05T19:18:57.874Z,46.31
2023-05-05T19:21:42.355Z,46.41
2023-05-05T19:24:34.246Z,46.47
2023-05-05T19:27:17.615Z,46.54
2023-05-05T19:30:04.325Z,46.53
2023-05-05T19:32:41.470Z,46.47
2023-05-05T19:35:15.722Z,46.62
2023-05-05T19:41:24.576Z,46.69
2023-05-05T19:44:02.829Z,46.87
2023-05-05T19:46:46.247Z,46.91
2023-05-05T19:49:19.217Z,47.02
2023-05-05T19:52:25.978Z,47.06
2023-05-05T19:55:33.503Z,47.15
2023-05-05T19:58:05.925Z,47.23
2023-05-05T20:00:40.775Z,47.12
2023-05-05T20:03:25.856Z,47.25
2023-05-05T20:06:45.765Z,47.47
2023-05-05T20:09:18.556Z,47.62
2023-05-05T20:12:00.238Z,47.61
2023-05-05T20:14:43.853Z,47.59
2023-05-05T20:17:34.166Z,47.74
2023-05-05T20:20:24.889Z,47.80
2023-05-05T20:23:06.222Z,47.93
2023-05-05T20:25:56.511Z,48.06
2023-05-05T20:28:26.971Z,48.17
2023-05-05T20:31:07.740Z,48.25
2023-05-05T20:33:47.136Z,48.36
2023-05-05T20:36:27.350Z,48.41
2023-05-05T20:39:01.188Z,48.58
2023-05-05T20:41:45.566Z,48.64
2023-05-05T20:44:18.766Z,48.91
2023-05-05T20:46:50.071Z,48.84
2023-05-05T20:49:34.793Z,49.05
2023-05-05T20:52:08.343Z,49.32
2023-05-05T20:54:39.912Z,49.33
2023-05-05T20:57:09.116Z,49.38
2023-05-05T20:59:40.697Z,49.61
2023-05-05T21:02:16.729Z,49.58
2023-05-05T21:05:01.727Z,49.77
2023-05-05T21:08:01.279Z,49.91
2023-05-05T21:10:33.791Z,50.11
2023-05-05T21:13:11.297Z,50.12
2023-05-05T21:24:21.166Z,50.52
2023-05-05T21:31:43.512Z,50.97
2023-05-05T21:34:24.669Z,51.03
2023-05-05T21:37:15.328Z,51.15
2023-05-05T21:40:01.290Z,51.28
2023-05-05T21:42:56.545Z,51.21
2023-05-05T21:46:05.907Z,51.67
2023-05-05T21:48:41.642Z,51.52
2023-05-05T21:51:14.429Z,51.67
2023-05-05T21:53:45.101Z,51.86
2023-05-05T21:56:27.647Z,51.96
2023-05-05T21:59:06.910Z,51.99
2023-05-05T22:01:43.029Z,52.22
2023-05-05T22:04:19.084Z,52.24
2023-05-05T22:06:53.909Z,52.42
2023-05-05T22:09:26.893Z,52.62
2023-05-05T22:12:16.115Z,52.70
2023-05-05T22:14:51.520Z,52.81
2023-05-05T22:17:24.216Z,52.97
2023-05-05T22:19:53.781Z,52.99
2023-05-05T22:22:22.977Z,52.97
2023-05-05T22:24:57.095Z,53.07
2023-05-05T22:27:38.528Z,53.24
2023-05-05T22:30:27.961Z,53.30
2023-05-05T22:33:03.958Z,53.50
2023-05-05T22:35:48.843Z,53.51
2023-05-05T22:38:18.082Z,53.62
2023-05-05T22:40:52.121Z,53.82
2023-05-05T22:43:25.993Z,53.80
2023-05-05T22:46:01.638Z,53.95
2023-05-05T22:48:34.059Z,54.12
2023-05-05T22:51:03.720Z,54.25
2023-05-05T22:53:34.766Z,54.26
2023-05-05T22:56:04.621Z,54.36
2023-05-05T22:58:46.008Z,54.31
2023-05-05T23:01:18.463Z,54.34
2023-05-05T23:03:47.034Z,54.40
2023-05-05T23:06:15.778Z,54.34
2023-05-05T23:08:44.807Z,54.52
2023-05-05T23:11:13.853Z,54.52
2023-05-05T23:13:43.946Z,54.72
2023-05-05T23:16:20.241Z,54.76
2023-05-05T23:18:49.152Z,54.75
2023-05-05T23:21:23.979Z,54.59
2023-05-05T23:23:54.919Z,54.78
2023-05-05T23:26:27.002Z,54.99
2023-05-05T23:28:58.125Z,54.95
2023-05-05T23:31:30.902Z,54.98
2023-05-05T23:34:06.439Z,55.09
2023-05-05T23:36:39.840Z,55.04
2023-05-05T23:39:13.895Z,55.11
2023-05-05T23:41:44.610Z,55.16
2023-05-05T23:44:15.195Z,55.13
2023-05-05T23:46:58.615Z,55.34
2023-05-05T23:49:31.056Z,55.29
2023-05-05T23:52:09.253Z,55.34
2023-05-05T23:54:41.277Z,55.24
2023-05-05T23:57:12.891Z,55.27
2023-05-05T23:59:44.469Z,55.43
